Time;durP1;ratioP1;P1;durP2;ratioP2;P2;SDS_P1;SDS_P2;PMS_P1;PMS_P2;Temp;Humidity;BMP_temperature;BMP_pressure;BME280_temperature;BME280_humidity;BME280_pressure;Samples;Min_cycle;Max_cycle;Signal;HPM_P1;HPM_P2
2024/02/26 00:01:18;;;;;;;54.80;29.40;;;;;;;4.53;77.38;97815.08;227008;1267;22576;-79
2024/02/26 00:06:22;;;;;;;53.90;28.90;;;;;;;4.44;77.25;97814.28;226980;1275;22555;-78
2024/02/26 00:11:24;;;;;;;47.60;26.50;;;;;;;4.37;77.41;97815.67;227064;1273;25359;-78
2024/02/26 00:16:26;;;;;;;51.70;28.10;;;;;;;4.33;77.92;97809.34;226996;1267;22533;-78
2024/02/26 00:21:28;;;;;;;50.40;28.20;;;;;;;4.29;77.95;97804.98;226983;1273;22544;-79
2024/02/26 00:26:30;;;;;;;51.10;28.70;;;;;;;4.21;77.59;97801.17;226834;1269;22543;-78
2024/02/26 00:31:32;;;;;;;45.60;26.80;;;;;;;4.15;77.95;97807.46;226806;1270;24600;-78
2024/02/26 00:36:34;;;;;;;43.70;24.50;;;;;;;4.15;78.32;97811.16;226843;1274;22609;-78
2024/02/26 00:41:40;;;;;;;38.90;22.90;;;;;;;4.16;78.30;97812.08;226774;1273;22554;-78
2024/02/26 00:46:42;;;;;;;41.10;23.80;;;;;;;4.22;78.74;97819.90;226789;1272;23125;-78
2024/02/26 00:51:44;;;;;;;35.40;22.00;;;;;;;4.25;78.35;97818.52;226926;1271;24385;-78
2024/02/26 00:56:46;;;;;;;34.70;19.70;;;;;;;4.28;78.61;97816.67;226771;1274;22540;-78
2024/02/26 01:01:48;;;;;;;40.10;23.00;;;;;;;4.34;78.62;97810.81;226753;1272;22544;-78
2024/02/26 01:06:50;;;;;;;39.30;22.30;;;;;;;4.36;78.95;97810.83;226766;1274;22553;-78
2024/02/26 01:11:52;;;;;;;37.30;22.10;;;;;;;4.34;78.53;97810.95;226798;1274;22925;-78
2024/02/26 01:16:54;;;;;;;39.60;21.70;;;;;;;4.30;78.55;97807.90;226962;1275;22570;-78
2024/02/26 01:21:56;;;;;;;37.10;21.10;;;;;;;4.24;78.70;97810.45;226753;1268;22563;-77
2024/02/26 01:26:58;;;;;;;35.50;19.80;;;;;;;4.19;79.02;97808.73;226699;1273;22552;-78
2024/02/26 01:32:00;;;;;;;30.60;18.70;;;;;;;4.14;78.92;97802.23;226894;1274;22527;-78
2024/02/26 01:37:03;;;;;;;30.00;16.80;;;;;;;4.07;79.16;97799.85;226942;1272;22556;-78
2024/02/26 01:42:05;;;;;;;26.20;15.70;;;;;;;4.08;79.42;97799.91;226915;1273;22555;-78
2024/02/26 01:47:10;;;;;;;32.60;19.30;;;;;;;4.14;79.45;97796.33;226927;1271;22543;-78
2024/02/26 01:52:12;;;;;;;32.20;20.00;;;;;;;4.08;79.07;97794.29;226750;1268;22563;-78
2024/02/26 01:57:14;;;;;;;34.40;19.10;;;;;;;3.98;78.95;97793.84;226782;1272;22558;-78
2024/02/26 02:02:16;;;;;;;33.40;20.90;;;;;;;3.89;79.10;97795.62;226920;1269;22537;-78
2024/02/26 02:07:20;;;;;;;33.20;20.90;;;;;;;3.78;79.17;97794.04;226677;1274;22563;-77
2024/02/26 02:12:22;;;;;;;36.10;20.80;;;;;;;3.69;79.11;97797.83;226744;1273;221482;-77
2024/02/26 02:17:24;;;;;;;40.00;21.70;;;;;;;3.65;79.39;97795.70;226939;1274;22558;-78
2024/02/26 02:22:27;;;;;;;38.10;22.20;;;;;;;3.59;79.41;97798.05;226939;1271;23297;-78
2024/02/26 02:27:29;;;;;;;34.10;20.40;;;;;;;3.55;79.94;97794.15;226890;1273;22573;-78
2024/02/26 02:32:32;;;;;;;38.70;22.00;;;;;;;3.50;79.69;97785.09;226893;1271;22558;-78
2024/02/26 02:37:34;;;;;;;34.40;20.60;;;;;;;3.47;79.89;97787.05;226781;1273;23436;-78
2024/02/26 02:42:36;;;;;;;34.20;21.50;;;;;;;3.46;80.13;97786.80;226716;1272;22562;-79
2024/02/26 02:47:38;;;;;;;32.80;21.00;;;;;;;3.46;80.08;97787.12;226835;1273;22543;-78
2024/02/26 02:52:40;;;;;;;33.10;21.00;;;;;;;3.43;80.09;97786.38;226794;1273;22569;-78
2024/02/26 02:57:42;;;;;;;28.60;18.80;;;;;;;3.39;80.14;97780.43;226827;1273;24050;-78
2024/02/26 03:02:45;;;;;;;28.90;17.70;;;;;;;3.38;80.17;97780.92;226759;1275;22586;-78
2024/02/26 03:07:47;;;;;;;28.70;18.40;;;;;;;3.40;80.46;97775.14;226958;1273;24232;-77
2024/02/26 03:12:50;;;;;;;33.60;22.20;;;;;;;3.40;80.43;97777.91;226825;1273;23023;-78
2024/02/26 03:17:52;;;;;;;33.30;21.00;;;;;;;3.37;80.11;97783.66;226890;1271;22550;-79
2024/02/26 03:22:54;;;;;;;33.30;19.60;;;;;;;3.29;80.28;97782.59;226742;1273;22551;-78
2024/02/26 03:27:56;;;;;;;25.90;17.10;;;;;;;3.19;80.25;97781.87;226781;1274;22560;-78
2024/02/26 03:32:58;;;;;;;28.00;17.80;;;;;;;3.12;80.43;97779.54;226734;1270;22558;-78
2024/02/26 03:38:02;;;;;;;27.80;16.40;;;;;;;3.08;80.52;97772.30;226959;1275;24229;-78
2024/02/26 03:43:06;;;;;;;27.00;17.20;;;;;;;3.08;80.82;97767.80;226921;1254;22564;-78
2024/02/26 03:48:08;;;;;;;22.60;15.70;;;;;;;3.12;81.08;97764.16;226772;1273;22976;-78
2024/02/26 03:53:12;;;;;;;30.00;18.70;;;;;;;3.16;81.01;97764.11;226945;1273;22575;-78
2024/02/26 03:58:15;;;;;;;28.70;18.30;;;;;;;3.12;80.82;97759.54;226896;1271;22539;-78
2024/02/26 04:03:17;;;;;;;30.20;18.10;;;;;;;3.05;80.84;97752.60;226732;1273;22554;-78
2024/02/26 04:08:20;;;;;;;30.70;16.20;;;;;;;2.99;80.77;97750.39;226766;1268;23268;-77
2024/02/26 04:13:22;;;;;;;22.00;15.00;;;;;;;2.97;81.02;97750.21;226932;1271;22579;-77
2024/02/26 04:18:24;;;;;;;31.90;20.30;;;;;;;3.07;81.42;97748.08;226956;1273;22543;-78
2024/02/26 04:23:26;;;;;;;29.80;18.20;;;;;;;3.15;81.51;97740.90;226941;1273;22577;-78
2024/02/26 04:28:30;;;;;;;25.40;16.40;;;;;;;3.23;81.66;97737.96;226929;1273;22554;-78
2024/02/26 04:33:34;;;;;;;26.20;16.70;;;;;;;3.25;81.24;97736.23;226809;1274;22693;-78
2024/02/26 04:38:37;;;;;;;24.80;16.70;;;;;;;3.23;81.22;97732.32;227003;1271;24202;-78
2024/02/26 04:43:41;;;;;;;26.80;17.00;;;;;;;3.24;81.41;97735.96;226737;1274;22581;-77
2024/02/26 04:48:45;;;;;;;30.30;19.60;;;;;;;3.28;81.27;97738.23;226718;1274;22561;-77
2024/02/26 04:53:47;;;;;;;34.10;20.80;;;;;;;3.31;81.19;97736.09;226781;1269;22542;-77
2024/02/26 04:58:49;;;;;;;32.10;20.00;;;;;;;3.27;81.02;97734.27;226712;1273;25298;-78
2024/02/26 05:03:51;;;;;;;33.60;19.60;;;;;;;3.21;81.15;97734.72;226931;1274;22749;-77
2024/02/26 05:08:53;;;;;;;32.00;20.50;;;;;;;3.13;80.95;97739.05;226824;1274;24829;-78
2024/02/26 05:13:55;;;;;;;31.60;20.00;;;;;;;3.02;80.90;97745.16;226824;1274;22547;-78
2024/02/26 05:18:57;;;;;;;33.20;21.90;;;;;;;2.95;81.12;97749.77;226822;1273;22555;-77
2024/02/26 05:24:00;;;;;;;34.80;22.00;;;;;;;2.83;80.89;97749.08;226936;1271;25430;-77
2024/02/26 05:29:02;;;;;;;34.70;21.70;;;;;;;2.73;81.09;97747.18;226802;1268;22608;-77
2024/02/26 05:34:04;;;;;;;36.40;23.90;;;;;;;2.66;81.26;97745.89;226727;1273;22542;-78
2024/02/26 05:39:06;;;;;;;47.30;27.20;;;;;;;2.59;81.27;97751.17;226894;1269;22546;-78
2024/02/26 05:44:14;;;;;;;43.30;26.00;;;;;;;2.54;81.41;97752.63;226800;1272;23474;-77
2024/02/26 05:49:16;;;;;;;41.40;27.00;;;;;;;2.51;81.55;97758.48;226777;1274;23066;-78
2024/02/26 05:54:18;;;;;;;42.40;26.10;;;;;;;2.51;81.76;97758.67;226926;1271;22661;-78
2024/02/26 05:59:20;;;;;;;43.50;27.50;;;;;;;2.54;81.95;97761.82;226800;1273;22550;-79
2024/02/26 06:04:22;;;;;;;44.20;27.60;;;;;;;2.60;82.09;97765.84;226688;1273;22539;-79
2024/02/26 06:09:24;;;;;;;44.30;28.00;;;;;;;2.65;81.99;97766.90;226882;1271;22566;-78
2024/02/26 06:14:26;;;;;;;38.00;24.10;;;;;;;2.71;82.14;97773.16;226760;1272;22540;-78
2024/02/26 06:19:28;;;;;;;42.50;27.20;;;;;;;2.79;82.25;97778.60;226980;1271;22539;-78
2024/02/26 06:24:31;;;;;;;39.70;27.10;;;;;;;2.85;82.18;97781.57;226941;1272;22731;-78
2024/02/26 06:29:32;;;;;;;40.30;26.20;;;;;;;2.93;82.24;97788.89;226970;1271;23008;-79
2024/02/26 06:34:35;;;;;;;41.80;26.70;;;;;;;3.01;82.42;97793.11;226820;1267;22542;-79
2024/02/26 06:39:38;;;;;;;41.60;24.70;;;;;;;3.13;82.71;97795.09;226708;1271;24280;-79
2024/02/26 06:44:40;;;;;;;42.50;27.10;;;;;;;3.31;82.89;97796.59;226913;1273;22567;-78
2024/02/26 06:49:43;;;;;;;39.30;26.00;;;;;;;3.51;82.83;97793.15;226746;1273;22550;-79
2024/02/26 06:54:48;;;;;;;41.80;27.00;;;;;;;3.66;82.58;97797.97;226510;1255;24228;-79
2024/02/26 06:59:50;;;;;;;40.30;25.10;;;;;;;3.79;82.47;97796.02;226425;1252;23045;-78
2024/02/26 07:04:52;;;;;;;42.30;26.90;;;;;;;3.99;82.83;97795.19;226583;1268;25424;-79
2024/02/26 07:09:55;;;;;;;43.80;27.30;;;;;;;4.18;82.87;97792.02;226653;1268;22654;-78
2024/02/26 07:14:57;;;;;;;38.60;26.20;;;;;;;4.37;82.62;97788.64;226581;1253;22551;-75
2024/02/26 07:20:00;;;;;;;40.00;25.50;;;;;;;4.60;82.88;97793.52;226455;1253;22554;-73
2024/02/26 07:25:03;;;;;;;37.30;24.90;;;;;;;4.87;82.50;97791.77;226283;1255;22903;-74
2024/02/26 07:30:07;;;;;;;35.70;22.60;;;;;;;5.17;82.38;97791.80;226374;1268;22540;-76
2024/02/26 07:35:10;;;;;;;34.10;22.50;;;;;;;5.46;82.11;97791.02;226495;1252;22536;-78
2024/02/26 07:40:12;;;;;;;33.20;22.60;;;;;;;5.80;82.49;97789.56;226235;1255;22547;-78
2024/02/26 07:45:15;;;;;;;33.50;21.70;;;;;;;6.14;82.05;97786.02;226341;1267;22669;-81
2024/02/26 07:50:18;;;;;;;30.60;20.40;;;;;;;6.46;81.67;97785.80;226307;1271;22547;-82
2024/02/26 07:55:20;;;;;;;32.20;20.10;;;;;;;6.74;81.52;97788.69;226444;1268;26201;-80
2024/02/26 08:00:22;;;;;;;29.90;19.10;;;;;;;6.90;80.63;97795.46;226192;1273;22594;-81
2024/02/26 08:05:25;;;;;;;29.10;18.60;;;;;;;7.04;80.88;97797.89;226229;1267;22591;-79
2024/02/26 08:10:27;;;;;;;26.00;17.00;;;;;;;7.17;80.69;97798.91;226159;1273;23138;-80
2024/02/26 08:15:35;;;;;;;22.40;16.70;;;;;;;7.23;80.61;97795.17;226378;1255;25421;-81
2024/02/26 08:20:37;;;;;;;23.50;16.10;;;;;;;7.31;80.25;97800.27;226226;1271;22552;-78
2024/02/26 08:25:39;;;;;;;20.00;14.50;;;;;;;7.44;80.35;97796.56;226240;1252;22575;-81
2024/02/26 08:30:41;;;;;;;18.60;13.80;;;;;;;7.62;80.57;97797.45;226299;1268;22687;-81
2024/02/26 08:40:04;;;;;;;20.10;13.30;;;;;;;7.91;80.17;97794.08;219745;1305;545431;-80
2024/02/26 08:45:09;;;;;;;17.90;12.50;;;;;;;8.00;79.86;97788.90;224520;1282;23168;-81
2024/02/26 08:50:12;;;;;;;17.70;12.40;;;;;;;8.17;79.98;97790.02;224420;1285;200361;-82
2024/02/26 08:55:15;;;;;;;16.50;12.00;;;;;;;8.47;80.23;97793.42;224650;1281;22597;-83
2024/02/26 09:00:20;;;;;;;15.30;10.40;;;;;;;8.74;80.09;97794.50;224753;1285;23339;-81
2024/02/26 09:05:22;;;;;;;13.30;10.00;;;;;;;9.07;79.54;97792.28;224930;1273;22544;-81
2024/02/26 09:10:24;;;;;;;13.80;9.00;;;;;;;9.43;79.17;97792.59;224591;1281;22567;-80
2024/02/26 09:15:26;;;;;;;14.20;9.50;;;;;;;9.79;78.25;97790.90;224620;1279;24261;-76
2024/02/26 09:20:28;;;;;;;11.20;8.60;;;;;;;10.01;77.43;97781.42;224837;1279;22608;-82
2024/02/26 09:25:30;;;;;;;11.70;8.50;;;;;;;10.17;77.39;97781.98;224736;1288;22697;-77
2024/02/26 09:30:32;;;;;;;10.50;7.80;;;;;;;10.36;77.24;97780.53;225125;1267;22549;-78
2024/02/26 09:35:34;;;;;;;10.40;7.90;;;;;;;10.59;77.30;97778.12;225015;1275;22709;-82
2024/02/26 09:40:40;;;;;;;7.70;5.40;;;;;;;10.83;76.65;97784.14;225149;1269;22562;-84
2024/02/26 09:45:42;;;;;;;8.60;5.80;;;;;;;11.08;75.96;97777.20;224985;1264;22670;-83
2024/02/26 09:50:44;;;;;;;47.40;27.30;;;;;;;11.33;75.54;97782.69;224931;1275;22638;-82
2024/02/26 09:55:46;;;;;;;9.30;6.60;;;;;;;11.57;75.02;97785.07;225531;1272;22545;-82
2024/02/26 10:00:53;;;;;;;10.80;7.80;;;;;;;11.77;74.30;97789.45;225458;1272;23002;-84
2024/02/26 10:05:57;;;;;;;10.20;6.50;;;;;;;11.88;73.91;97788.36;225736;1260;22539;-80
2024/02/26 10:10:59;;;;;;;9.70;7.80;;;;;;;12.05;73.76;97782.75;225387;1272;22576;-81
2024/02/26 10:16:03;;;;;;;9.00;5.70;;;;;;;12.21;73.37;97784.83;225231;1259;22562;-81
2024/02/26 10:21:07;;;;;;;7.80;5.30;;;;;;;12.37;72.94;97787.45;225398;1275;23427;-82
2024/02/26 10:26:11;;;;;;;7.90;5.80;;;;;;;12.59;72.63;97782.13;225424;1272;22582;-81
2024/02/26 10:31:16;;;;;;;9.10;5.70;;;;;;;12.80;72.28;97783.55;225277;1263;22550;-81
2024/02/26 10:36:18;;;;;;;7.50;5.70;;;;;;;12.94;71.69;97780.67;225612;1272;22568;-82
2024/02/26 10:41:22;;;;;;;8.80;4.90;;;;;;;13.02;71.16;97771.42;225606;1272;22589;-77
2024/02/26 10:46:25;;;;;;;6.30;4.70;;;;;;;13.11;71.26;97767.08;225593;1278;22722;-83
2024/02/26 10:51:30;;;;;;;6.30;4.10;;;;;;;13.25;70.89;97764.05;225572;1262;22584;-84
2024/02/26 10:56:34;;;;;;;5.90;3.80;;;;;;;13.44;70.58;97762.35;225739;1261;22556;-81
2024/02/26 11:01:41;;;;;;;4.90;3.60;;;;;;;13.53;70.09;97763.31;225696;1266;22668;-83
2024/02/26 11:06:45;;;;;;;5.30;3.70;;;;;;;13.80;70.44;97761.30;225686;1272;22562;-82
2024/02/26 11:11:48;;;;;;;4.80;3.10;;;;;;;14.22;70.17;97753.92;225493;1274;22571;-82
2024/02/26 11:16:50;;;;;;;3.80;2.30;;;;;;;14.56;69.41;97748.09;225666;1261;22590;-84
2024/02/26 11:21:52;;;;;;;4.30;3.00;;;;;;;14.74;68.70;97743.36;225623;1269;25987;-82
2024/02/26 11:26:59;;;;;;;4.80;3.00;;;;;;;14.86;68.20;97741.81;225358;1272;22603;-81
2024/02/26 11:32:02;;;;;;;3.60;2.70;;;;;;;14.96;67.95;97744.86;225865;1272;22848;-84
2024/02/26 11:37:11;;;;;;;4.90;3.00;;;;;;;15.05;67.80;97743.02;225738;1272;23336;-82
2024/02/26 11:42:16;;;;;;;4.50;3.20;;;;;;;15.25;67.14;97737.68;225753;1278;22538;-84
2024/02/26 11:47:23;;;;;;;6.10;3.60;;;;;;;15.44;67.17;97736.90;225786;1266;22670;-82
2024/02/26 11:52:25;;;;;;;4.90;3.70;;;;;;;15.59;67.19;97734.48;226070;1272;25281;-83
2024/02/26 11:57:28;;;;;;;4.60;3.30;;;;;;;15.73;66.65;97736.81;225959;1273;22556;-83
2024/02/26 12:02:57;;;;;;;3.40;2.90;;;;;;;15.85;65.79;97737.44;226001;1259;22547;-80
2024/02/26 12:08:09;;;;;;;5.00;2.70;;;;;;;15.78;65.24;97736.34;225962;1272;25291;-83
2024/02/26 12:13:13;;;;;;;3.50;3.10;;;;;;;15.85;65.18;97731.48;225536;1272;22546;-82
2024/02/26 12:18:22;;;;;;;3.60;2.80;;;;;;;15.95;64.87;97726.27;225774;1278;22561;-81
2024/02/26 12:23:24;;;;;;;3.80;2.80;;;;;;;16.01;64.82;97719.42;225734;1269;22553;-81
2024/02/26 12:28:30;;;;;;;4.40;2.80;;;;;;;15.94;64.26;97718.41;225933;1275;22625;-83
2024/02/26 12:33:32;;;;;;;3.20;2.80;;;;;;;15.89;64.69;97714.67;226001;1269;22708;-81
2024/02/26 12:38:36;;;;;;;3.90;3.50;;;;;;;15.90;64.29;97716.86;225569;1262;22701;-80
2024/02/26 12:43:39;;;;;;;3.50;2.80;;;;;;;15.90;64.27;97718.52;225562;1278;25406;-81
2024/02/26 12:48:44;;;;;;;5.50;3.80;;;;;;;15.98;64.33;97717.61;225686;1269;22564;-81
2024/02/26 12:53:50;;;;;;;4.00;3.60;;;;;;;16.18;64.53;97714.64;225727;1273;22540;-79
2024/02/26 12:58:53;;;;;;;3.60;3.30;;;;;;;16.34;64.15;97717.70;225700;1278;22573;-78
2024/02/26 13:03:58;;;;;;;3.60;3.30;;;;;;;16.39;63.89;97715.66;225934;1263;22549;-80
2024/02/26 13:09:01;;;;;;;3.60;2.80;;;;;;;16.32;63.05;97725.14;226029;1275;24264;-79
2024/02/26 13:14:03;;;;;;;3.90;3.10;;;;;;;16.15;62.38;97714.40;225967;1275;22597;-81
2024/02/26 13:19:10;;;;;;;3.30;3.00;;;;;;;16.03;62.78;97718.15;225731;1268;22927;-81
2024/02/26 13:24:13;;;;;;;4.20;3.50;;;;;;;16.00;63.03;97714.34;225741;1273;22543;-79
2024/02/26 13:29:19;;;;;;;5.00;3.70;;;;;;;15.99;62.80;97716.84;225745;1272;22578;-79
2024/02/26 13:34:30;;;;;;;4.30;3.70;;;;;;;16.01;63.10;97717.08;225586;1271;22585;-79
2024/02/26 13:39:32;;;;;;;6.20;4.00;;;;;;;16.01;62.73;97709.60;225642;1269;22666;-79
2024/02/26 13:44:39;;;;;;;4.10;3.60;;;;;;;15.96;62.85;97711.26;225757;1273;22541;-79
2024/02/26 13:49:41;;;;;;;5.00;4.50;;;;;;;15.78;62.15;97709.02;225682;1259;22569;-81
2024/02/26 13:54:43;;;;;;;4.90;4.20;;;;;;;15.65;62.70;97716.02;225827;1269;22543;-81
2024/02/26 13:59:51;;;;;;;6.30;4.50;;;;;;;15.58;62.80;97719.23;225804;1273;22564;-81
2024/02/26 14:04:53;;;;;;;5.90;4.60;;;;;;;15.49;63.21;97722.39;225929;1263;22914;-80
2024/02/26 14:09:56;;;;;;;8.70;5.80;;;;;;;15.41;63.21;97721.96;225814;1272;22542;-80
2024/02/26 14:15:00;;;;;;;11.00;5.40;;;;;;;15.30;63.51;97717.16;225969;1273;25120;-79
2024/02/26 14:20:03;;;;;;;14.10;5.80;;;;;;;15.16;63.61;97721.16;225919;1275;22550;-79
2024/02/26 14:25:07;;;;;;;5.60;4.80;;;;;;;15.03;63.92;97722.83;225766;1272;22597;-80
2024/02/26 14:30:12;;;;;;;7.20;5.30;;;;;;;14.87;63.86;97729.00;225888;1273;22653;-80
2024/02/26 14:35:14;;;;;;;7.20;5.60;;;;;;;14.76;64.24;97733.14;225738;1272;22558;-81
2024/02/26 14:40:19;;;;;;;8.50;6.10;;;;;;;14.61;64.47;97731.06;225823;1272;22694;-80
2024/02/26 14:45:21;;;;;;;8.60;5.80;;;;;;;14.49;64.72;97734.14;225500;1261;25732;-79
2024/02/26 14:50:24;;;;;;;9.30;6.30;;;;;;;14.41;64.89;97731.02;225644;1272;24244;-79
2024/02/26 14:55:26;;;;;;;10.00;7.20;;;;;;;14.34;65.53;97728.21;225702;1275;22569;-80
2024/02/26 15:00:29;;;;;;;16.30;8.40;;;;;;;14.24;65.82;97731.27;225756;1278;22582;-80
2024/02/26 15:05:32;;;;;;;11.90;7.40;;;;;;;14.15;65.94;97729.97;225726;1263;22540;-81
2024/02/26 15:10:34;;;;;;;9.30;6.60;;;;;;;14.01;66.04;97731.61;226173;1278;22554;-81
2024/02/26 15:15:36;;;;;;;11.10;7.70;;;;;;;13.87;66.13;97738.55;225766;1276;24231;-80
2024/02/26 15:20:38;;;;;;;15.30;8.30;;;;;;;13.76;65.98;97745.23;225624;1278;22754;-82
2024/02/26 15:25:41;;;;;;;12.80;9.20;;;;;;;13.62;66.25;97742.75;225814;1262;22569;-81
2024/02/26 15:30:43;;;;;;;14.20;10.10;;;;;;;13.47;66.49;97743.48;226393;1276;22551;-81
2024/02/26 15:35:46;;;;;;;13.50;9.00;;;;;;;13.32;66.57;97744.91;226518;1276;22551;-82
2024/02/26 15:40:49;;;;;;;12.10;8.20;;;;;;;13.19;66.86;97746.12;226742;1272;22545;-81
2024/02/26 15:45:51;;;;;;;15.90;9.30;;;;;;;13.06;67.36;97745.90;226535;1275;22723;-81
2024/02/26 15:50:53;;;;;;;18.00;10.20;;;;;;;12.93;67.54;97749.83;226676;1275;22621;-81
2024/02/26 15:55:55;;;;;;;15.50;10.30;;;;;;;12.79;68.03;97750.40;226447;1275;22532;-82
2024/02/26 16:00:57;;;;;;;16.40;9.70;;;;;;;12.65;68.29;97754.16;226489;1275;22646;-81
2024/02/26 16:06:22;;;;;;;10.70;6.90;;;;;;;12.52;68.33;97758.02;226690;1273;24226;-81
2024/02/26 16:11:25;;;;;;;10.40;7.60;;;;;;;12.46;68.37;97764.27;226694;1273;22560;-81
2024/02/26 16:16:32;;;;;;;12.50;6.60;;;;;;;12.41;68.53;97769.59;226587;1275;22528;-81
2024/02/26 16:21:34;;;;;;;13.10;8.10;;;;;;;12.35;68.56;97781.36;226653;1274;22578;-81
2024/02/26 16:26:36;;;;;;;11.40;7.20;;;;;;;12.29;68.77;97785.55;226565;1275;22550;-80
2024/02/26 16:31:38;;;;;;;12.80;8.00;;;;;;;12.23;68.77;97788.88;226682;1272;22559;-81
2024/02/26 16:36:41;;;;;;;14.80;9.30;;;;;;;12.14;68.95;97799.22;226463;1276;22545;-80
2024/02/26 16:41:43;;;;;;;17.80;11.50;;;;;;;12.03;69.11;97803.98;226572;1275;22567;-81
2024/02/26 16:46:45;;;;;;;17.20;11.20;;;;;;;11.92;69.27;97808.42;226427;1275;22893;-81
2024/02/26 16:51:47;;;;;;;20.40;12.30;;;;;;;11.79;69.50;97812.14;226620;1275;22644;-82
2024/02/26 16:56:49;;;;;;;27.10;17.60;;;;;;;11.63;69.60;97820.50;226570;1275;22547;-82
2024/02/26 17:01:52;;;;;;;21.70;14.90;;;;;;;11.48;69.97;97827.23;226673;1272;22539;-81
2024/02/26 17:06:54;;;;;;;15.40;10.20;;;;;;;11.36;70.35;97834.09;226645;1275;22499;-82
2024/02/26 17:11:56;;;;;;;14.30;10.00;;;;;;;11.27;70.50;97841.36;226677;1273;22583;-80
2024/02/26 17:17:03;;;;;;;16.10;10.30;;;;;;;11.18;70.69;97847.08;226731;1272;22669;-81
2024/02/26 17:22:09;;;;;;;19.20;12.20;;;;;;;11.08;70.89;97851.14;226607;1275;22695;-81
2024/02/26 17:27:12;;;;;;;22.90;14.60;;;;;;;10.95;71.10;97858.66;226715;1262;22561;-82
2024/02/26 17:32:14;;;;;;;28.70;17.70;;;;;;;10.81;71.32;97867.64;226455;1275;22573;-81
2024/02/26 17:37:17;;;;;;;23.90;15.50;;;;;;;10.64;71.47;97872.69;226643;1273;23060;-81
2024/02/26 17:42:19;;;;;;;25.30;17.20;;;;;;;10.47;72.01;97884.91;226476;1269;22547;-80
2024/02/26 17:47:21;;;;;;;28.00;18.90;;;;;;;10.29;72.07;97889.13;226665;1275;22543;-80
2024/02/26 17:52:24;;;;;;;27.50;17.30;;;;;;;10.16;72.40;97894.21;226738;1274;22616;-81
2024/02/26 17:57:26;;;;;;;22.20;15.20;;;;;;;10.05;72.79;97895.04;226600;1275;22601;-80
2024/02/26 18:02:31;;;;;;;20.00;12.20;;;;;;;9.99;72.92;97899.67;226617;1275;24275;-81
2024/02/26 18:07:33;;;;;;;14.20;10.40;;;;;;;9.97;73.22;97906.82;226749;1272;22561;-81
2024/02/26 18:12:37;;;;;;;18.30;12.10;;;;;;;9.94;73.13;97913.29;226550;1275;23834;-80
2024/02/26 18:17:43;;;;;;;18.70;11.80;;;;;;;9.89;73.29;97916.84;226656;1275;25578;-80
2024/02/26 18:22:45;;;;;;;30.00;18.90;;;;;;;9.86;73.61;97918.69;226499;1275;22551;-81
2024/02/26 18:27:49;;;;;;;37.30;22.80;;;;;;;9.78;73.78;97921.75;226459;1275;22560;-81
2024/02/26 18:32:57;;;;;;;;;;;;;;;9.63;73.48;97926.38;226645;1273;22528;-81
2024/02/26 18:37:59;;;;;;;33.20;19.90;;;;;;;9.46;73.96;97931.20;226668;1274;22570;-81
2024/02/26 18:43:04;;;;;;;33.80;20.30;;;;;;;9.34;74.13;97931.98;226744;1270;22546;-81
2024/02/26 18:48:07;;;;;;;35.40;21.50;;;;;;;9.24;74.62;97935.13;226715;1273;22548;-81
2024/02/26 18:53:09;;;;;;;35.20;22.30;;;;;;;9.15;74.41;97942.50;226571;1275;22557;-81
2024/02/26 18:58:12;;;;;;;45.90;26.50;;;;;;;9.08;75.01;97951.39;226712;1273;22546;-81
2024/02/26 19:03:14;;;;;;;41.10;24.90;;;;;;;9.05;75.41;97952.52;226721;1270;22540;-81
2024/02/26 19:08:16;;;;;;;38.60;23.30;;;;;;;9.05;75.52;97955.57;226583;1275;22546;-81
2024/02/26 19:13:18;;;;;;;40.00;25.50;;;;;;;9.06;75.11;97961.64;226496;1275;22543;-81
2024/02/26 19:18:20;;;;;;;46.50;27.70;;;;;;;9.04;75.82;97972.40;226692;1275;22566;-81
2024/02/26 19:23:22;;;;;;;49.50;28.40;;;;;;;9.03;75.93;97976.61;226764;1269;22554;-81
2024/02/26 19:28:24;;;;;;;44.30;27.10;;;;;;;9.01;75.94;97988.63;226685;1275;22501;-81
2024/02/26 19:33:28;;;;;;;37.90;24.00;;;;;;;8.99;76.09;97993.45;226618;1275;22581;-80
2024/02/26 19:38:32;;;;;;;38.50;24.70;;;;;;;8.97;75.85;97998.10;226665;1275;24231;-81
2024/02/26 19:43:34;;;;;;;36.70;24.90;;;;;;;8.94;76.13;98000.23;226645;1276;22558;-81
2024/02/26 19:48:38;;;;;;;31.20;21.20;;;;;;;8.89;76.11;98000.17;226715;1275;22578;-81
2024/02/26 19:53:40;;;;;;;30.60;19.80;;;;;;;8.85;76.63;98000.89;226738;1276;22557;-81
2024/02/26 19:58:43;;;;;;;27.60;18.60;;;;;;;8.81;76.76;98008.23;226693;1254;22562;-80
2024/02/26 20:03:45;;;;;;;25.60;18.80;;;;;;;8.78;76.54;98020.14;226631;1271;22578;-81
2024/02/26 20:08:51;;;;;;;26.80;18.70;;;;;;;8.74;76.96;98024.34;226688;1269;22614;-81
2024/02/26 20:13:54;;;;;;;32.80;22.20;;;;;;;8.69;76.67;98025.01;226671;1276;22625;-81
2024/02/26 20:18:56;;;;;;;44.40;29.70;;;;;;;8.62;76.77;98027.30;226560;1276;22553;-82
2024/02/26 20:23:58;;;;;;;45.30;27.30;;;;;;;8.51;77.04;98025.38;226629;1270;22541;-81
2024/02/26 20:29:01;;;;;;;38.00;26.70;;;;;;;8.39;76.70;98024.21;226439;1275;22603;-81
2024/02/26 20:34:04;;;;;;;38.40;28.30;;;;;;;8.28;77.16;98029.37;226511;1276;22539;-81
2024/02/26 20:39:07;;;;;;;39.30;27.70;;;;;;;8.15;77.31;98037.25;226628;1273;22543;-82
2024/02/26 20:44:10;;;;;;;45.20;30.10;;;;;;;8.02;76.98;98038.36;226583;1276;22547;-81
2024/02/26 20:49:12;;;;;;;46.30;30.60;;;;;;;7.91;77.53;98042.15;226552;1270;22545;-81
2024/02/26 20:54:14;;;;;;;45.00;28.20;;;;;;;7.79;77.41;98054.70;225860;1269;979118;-81
2024/02/26 20:59:33;;;;;;;42.80;25.80;;;;;;;7.67;77.81;98055.52;226651;1275;22546;-80
2024/02/26 21:04:35;;;;;;;40.30;26.90;;;;;;;7.57;78.26;98056.45;226618;1275;23005;-82
2024/02/26 21:09:37;;;;;;;43.10;25.60;;;;;;;7.48;78.27;98064.45;226438;1276;22562;-81
2024/02/26 21:14:40;;;;;;;36.40;24.20;;;;;;;7.45;78.88;98070.48;226585;1275;25465;-81
2024/02/26 21:19:42;;;;;;;41.50;27.00;;;;;;;7.46;78.81;98076.31;226614;1276;22547;-81
2024/02/26 21:24:45;;;;;;;51.20;31.70;;;;;;;7.45;78.84;98073.95;226657;1273;22558;-81
2024/02/26 21:29:47;;;;;;;47.30;28.20;;;;;;;7.43;79.04;98081.86;226418;1276;22562;-81
2024/02/26 21:34:52;;;;;;;51.30;31.00;;;;;;;7.37;79.04;98088.40;226609;1275;22601;-81
2024/02/26 21:39:55;;;;;;;56.80;35.10;;;;;;;7.28;79.04;98093.38;226593;1272;22551;-82
2024/02/26 21:44:57;;;;;;;61.10;38.80;;;;;;;7.17;79.34;98091.70;226679;1269;22559;-81
2024/02/26 21:50:00;;;;;;;60.40;38.40;;;;;;;7.05;79.58;98097.53;226673;1269;23140;-81
2024/02/26 21:55:03;;;;;;;68.50;40.60;;;;;;;6.94;79.80;98102.98;226706;1274;22564;-80
2024/02/26 22:00:08;;;;;;;65.30;39.70;;;;;;;6.83;79.63;98107.04;226601;1275;22540;-81
2024/02/26 22:05:14;;;;;;;65.00;40.50;;;;;;;6.70;79.87;98108.27;226699;1269;22540;-81
2024/02/26 22:10:17;;;;;;;63.60;38.90;;;;;;;6.59;80.14;98110.46;226619;1275;22543;-81
2024/02/26 22:15:19;;;;;;;64.30;40.40;;;;;;;6.51;80.15;98114.22;226622;1275;24231;-81
2024/02/26 22:20:22;;;;;;;67.80;41.80;;;;;;;6.43;80.48;98118.12;226680;1275;22564;-81
2024/02/26 22:25:25;;;;;;;69.00;42.10;;;;;;;6.35;80.65;98119.66;226734;1273;22562;-81
2024/02/26 22:30:27;;;;;;;70.40;43.40;;;;;;;6.25;80.71;98124.45;226704;1275;23557;-81
2024/02/26 22:35:30;;;;;;;71.50;42.30;;;;;;;6.17;80.87;98126.78;226684;1273;22538;-81
2024/02/26 22:40:33;;;;;;;70.20;41.60;;;;;;;6.10;81.20;98130.80;226423;1273;22547;-80
2024/02/26 22:45:36;;;;;;;70.80;40.80;;;;;;;6.04;81.40;98129.66;226613;1275;22554;-81
2024/02/26 22:50:38;;;;;;;71.40;42.10;;;;;;;5.97;81.78;98136.16;226620;1275;22546;-81
2024/02/26 22:55:44;;;;;;;69.70;41.20;;;;;;;5.91;81.44;98136.38;226668;1273;22552;-81
2024/02/26 23:00:46;;;;;;;68.80;40.70;;;;;;;5.84;81.48;98143.59;226652;1272;25414;-81
2024/02/26 23:05:49;;;;;;;69.20;41.60;;;;;;;5.78;81.62;98141.41;226623;1275;22573;-81
2024/02/26 23:10:51;;;;;;;69.70;40.80;;;;;;;5.77;81.76;98143.91;226732;1272;22540;-81
2024/02/26 23:15:54;;;;;;;66.20;40.80;;;;;;;5.79;81.94;98151.89;226628;1270;22605;-80
2024/02/26 23:20:56;;;;;;;69.10;39.80;;;;;;;5.81;81.98;98155.50;226606;1271;22535;-80